sensor_id;sensor_type;location;lat;lon;timestamp;P1;durP1;ratioP1;P2;durP2;ratioP2
69502;SDS011;56704;54.242;12.442;2023-05-23T00:00:59;6.03;;;2.03;;
69502;SDS011;56704;54.242;12.442;2023-05-23T00:03:26;5.83;;;2.03;;
69502;SDS011;56704;54.242;12.442;2023-05-23T00:05:55;4.45;;;1.42;;
69502;SDS011;56704;54.242;12.442;2023-05-23T00:08:23;5.28;;;1.70;;
69502;SDS011;56704;54.242;12.442;2023-05-23T00:10:49;5.10;;;1.80;;
69502;SDS011;56704;54.242;12.442;2023-05-23T00:13:16;5.03;;;1.63;;
69502;SDS011;56704;54.242;12.442;2023-05-23T00:15:44;6.00;;;1.77;;
69502;SDS011;56704;54.242;12.442;2023-05-23T00:18:12;6.30;;;1.80;;
69502;SDS011;56704;54.242;12.442;2023-05-23T00:20:40;7.43;;;2.20;;
69502;SDS011;56704;54.242;12.442;2023-05-23T00:23:08;7.10;;;1.63;;
69502;SDS011;56704;54.242;12.442;2023-05-23T00:25:35;6.18;;;1.77;;
69502;SDS011;56704;54.242;12.442;2023-05-23T00:28:02;7.97;;;1.60;;
69502;SDS011;56704;54.242;12.442;2023-05-23T00:30:29;4.00;;;1.50;;
69502;SDS011;56704;54.242;12.442;2023-05-23T00:32:58;5.60;;;1.60;;
69502;SDS011;56704;54.242;12.442;2023-05-23T00:35:25;4.95;;;1.83;;
69502;SDS011;56704;54.242;12.442;2023-05-23T00:37:52;5.05;;;1.80;;
69502;SDS011;56704;54.242;12.442;2023-05-23T00:40:19;6.03;;;2.50;;
69502;SDS011;56704;54.242;12.442;2023-05-23T00:42:46;5.70;;;1.50;;
69502;SDS011;56704;54.242;12.442;2023-05-23T00:45:13;6.15;;;2.08;;
69502;SDS011;56704;54.242;12.442;2023-05-23T00:47:41;5.28;;;1.65;;
69502;SDS011;56704;54.242;12.442;2023-05-23T00:50:12;5.30;;;1.80;;
69502;SDS011;56704;54.242;12.442;2023-05-23T00:52:40;5.10;;;1.77;;
69502;SDS011;56704;54.242;12.442;2023-05-23T00:55:08;4.88;;;1.70;;
69502;SDS011;56704;54.242;12.442;2023-05-23T00:57:35;5.97;;;1.60;;
69502;SDS011;56704;54.242;12.442;2023-05-23T01:00:04;5.32;;;1.80;;
69502;SDS011;56704;54.242;12.442;2023-05-23T01:02:34;5.45;;;1.63;;
69502;SDS011;56704;54.242;12.442;2023-05-23T01:05:05;5.50;;;1.83;;
69502;SDS011;56704;54.242;12.442;2023-05-23T01:07:34;5.07;;;1.60;;
69502;SDS011;56704;54.242;12.442;2023-05-23T01:10:00;4.40;;;1.52;;
69502;SDS011;56704;54.242;12.442;2023-05-23T01:12:28;6.18;;;1.85;;
69502;SDS011;56704;54.242;12.442;2023-05-23T01:15:03;5.03;;;2.13;;
69502;SDS011;56704;54.242;12.442;2023-05-23T01:17:38;5.23;;;1.53;;
69502;SDS011;56704;54.242;12.442;2023-05-23T01:20:11;5.95;;;1.60;;
69502;SDS011;56704;54.242;12.442;2023-05-23T01:23:02;6.35;;;1.95;;
69502;SDS011;56704;54.242;12.442;2023-05-23T01:25:46;6.80;;;1.70;;
69502;SDS011;56704;54.242;12.442;2023-05-23T01:28:25;4.82;;;1.77;;
69502;SDS011;56704;54.242;12.442;2023-05-23T01:30:56;5.20;;;2.00;;
69502;SDS011;56704;54.242;12.442;2023-05-23T01:33:24;4.47;;;1.65;;
69502;SDS011;56704;54.242;12.442;2023-05-23T01:35:52;4.43;;;1.60;;
69502;SDS011;56704;54.242;12.442;2023-05-23T01:38:21;6.60;;;1.88;;
69502;SDS011;56704;54.242;12.442;2023-05-23T01:40:48;5.20;;;1.58;;
69502;SDS011;56704;54.242;12.442;2023-05-23T01:43:15;5.33;;;1.63;;
69502;SDS011;56704;54.242;12.442;2023-05-23T01:45:43;4.95;;;1.80;;
69502;SDS011;56704;54.242;12.442;2023-05-23T01:48:10;5.20;;;1.80;;
69502;SDS011;56704;54.242;12.442;2023-05-23T01:50:38;5.47;;;2.20;;
69502;SDS011;56704;54.242;12.442;2023-05-23T01:53:06;5.13;;;1.98;;
69502;SDS011;56704;54.242;12.442;2023-05-23T01:55:34;5.93;;;1.87;;
69502;SDS011;56704;54.242;12.442;2023-05-23T01:58:01;6.50;;;2.00;;
69502;SDS011;56704;54.242;12.442;2023-05-23T02:00:28;4.90;;;1.77;;
69502;SDS011;56704;54.242;12.442;2023-05-23T02:02:56;6.13;;;2.30;;
69502;SDS011;56704;54.242;12.442;2023-05-23T02:05:23;6.22;;;2.00;;
69502;SDS011;56704;54.242;12.442;2023-05-23T02:07:51;4.70;;;1.60;;
69502;SDS011;56704;54.242;12.442;2023-05-23T02:10:17;6.95;;;1.88;;
69502;SDS011;56704;54.242;12.442;2023-05-23T02:12:44;4.05;;;1.70;;
69502;SDS011;56704;54.242;12.442;2023-05-23T02:15:11;5.75;;;1.95;;
69502;SDS011;56704;54.242;12.442;2023-05-23T02:17:38;7.00;;;1.90;;
69502;SDS011;56704;54.242;12.442;2023-05-23T02:20:08;6.20;;;2.20;;
69502;SDS011;56704;54.242;12.442;2023-05-23T02:22:35;7.43;;;1.77;;
69502;SDS011;56704;54.242;12.442;2023-05-23T02:25:02;6.30;;;1.90;;
69502;SDS011;56704;54.242;12.442;2023-05-23T02:27:29;6.55;;;1.88;;
69502;SDS011;56704;54.242;12.442;2023-05-23T02:29:55;5.47;;;1.88;;
69502;SDS011;56704;54.242;12.442;2023-05-23T02:32:22;6.37;;;2.20;;
69502;SDS011;56704;54.242;12.442;2023-05-23T02:34:49;5.75;;;1.77;;
69502;SDS011;56704;54.242;12.442;2023-05-23T02:37:17;4.55;;;1.40;;
69502;SDS011;56704;54.242;12.442;2023-05-23T02:39:43;7.68;;;1.92;;
69502;SDS011;56704;54.242;12.442;2023-05-23T02:42:10;5.65;;;1.73;;
69502;SDS011;56704;54.242;12.442;2023-05-23T02:44:36;6.40;;;2.10;;
69502;SDS011;56704;54.242;12.442;2023-05-23T02:47:03;4.43;;;1.80;;
69502;SDS011;56704;54.242;12.442;2023-05-23T02:49:31;6.65;;;2.05;;
69502;SDS011;56704;54.242;12.442;2023-05-23T02:51:58;5.85;;;1.95;;
69502;SDS011;56704;54.242;12.442;2023-05-23T02:54:26;5.40;;;2.13;;
69502;SDS011;56704;54.242;12.442;2023-05-23T02:56:52;5.80;;;2.13;;
69502;SDS011;56704;54.242;12.442;2023-05-23T02:59:19;4.22;;;1.67;;
69502;SDS011;56704;54.242;12.442;2023-05-23T03:01:47;5.65;;;2.22;;
69502;SDS011;56704;54.242;12.442;2023-05-23T03:04:13;5.93;;;2.10;;
69502;SDS011;56704;54.242;12.442;2023-05-23T03:06:40;7.03;;;2.58;;
69502;SDS011;56704;54.242;12.442;2023-05-23T03:09:08;4.43;;;1.80;;
69502;SDS011;56704;54.242;12.442;2023-05-23T03:11:36;7.13;;;2.22;;
69502;SDS011;56704;54.242;12.442;2023-05-23T03:14:03;6.80;;;2.30;;
69502;SDS011;56704;54.242;12.442;2023-05-23T03:16:29;7.38;;;2.20;;
69502;SDS011;56704;54.242;12.442;2023-05-23T03:18:56;6.00;;;1.95;;
69502;SDS011;56704;54.242;12.442;2023-05-23T03:21:23;7.30;;;1.87;;
69502;SDS011;56704;54.242;12.442;2023-05-23T03:23:50;6.63;;;2.10;;
69502;SDS011;56704;54.242;12.442;2023-05-23T03:26:16;5.10;;;2.10;;
69502;SDS011;56704;54.242;12.442;2023-05-23T03:28:44;4.75;;;1.88;;
69502;SDS011;56704;54.242;12.442;2023-05-23T03:31:11;6.13;;;2.08;;
69502;SDS011;56704;54.242;12.442;2023-05-23T03:33:37;5.13;;;2.30;;
69502;SDS011;56704;54.242;12.442;2023-05-23T03:36:04;6.70;;;2.10;;
69502;SDS011;56704;54.242;12.442;2023-05-23T03:38:31;5.28;;;2.00;;
69502;SDS011;56704;54.242;12.442;2023-05-23T03:40:57;5.53;;;2.00;;
69502;SDS011;56704;54.242;12.442;2023-05-23T03:43:24;9.35;;;2.47;;
69502;SDS011;56704;54.242;12.442;2023-05-23T03:45:52;5.57;;;2.30;;
69502;SDS011;56704;54.242;12.442;2023-05-23T03:48:19;5.13;;;1.90;;
69502;SDS011;56704;54.242;12.442;2023-05-23T03:50:46;5.45;;;2.20;;
69502;SDS011;56704;54.242;12.442;2023-05-23T03:53:12;8.23;;;2.13;;
69502;SDS011;56704;54.242;12.442;2023-05-23T03:55:39;5.95;;;2.40;;
69502;SDS011;56704;54.242;12.442;2023-05-23T03:58:05;6.10;;;2.30;;
69502;SDS011;56704;54.242;12.442;2023-05-23T04:00:32;5.00;;;2.40;;
69502;SDS011;56704;54.242;12.442;2023-05-23T04:03:00;6.30;;;2.20;;
69502;SDS011;56704;54.242;12.442;2023-05-23T04:05:27;6.93;;;2.22;;
69502;SDS011;56704;54.242;12.442;2023-05-23T04:07:54;8.18;;;2.35;;
69502;SDS011;56704;54.242;12.442;2023-05-23T04:10:21;5.73;;;2.30;;
69502;SDS011;56704;54.242;12.442;2023-05-23T04:12:47;6.03;;;2.00;;
69502;SDS011;56704;54.242;12.442;2023-05-23T04:15:15;5.78;;;2.03;;
69502;SDS011;56704;54.242;12.442;2023-05-23T04:17:42;5.43;;;2.40;;
69502;SDS011;56704;54.242;12.442;2023-05-23T04:20:11;6.47;;;1.90;;
69502;SDS011;56704;54.242;12.442;2023-05-23T04:22:38;6.33;;;2.47;;
69502;SDS011;56704;54.242;12.442;2023-05-23T04:25:05;7.82;;;2.53;;
69502;SDS011;56704;54.242;12.442;2023-05-23T04:27:33;4.03;;;1.60;;
69502;SDS011;56704;54.242;12.442;2023-05-23T04:30:04;5.00;;;2.00;;
69502;SDS011;56704;54.242;12.442;2023-05-23T04:32:33;4.47;;;1.92;;
69502;SDS011;56704;54.242;12.442;2023-05-23T04:35:00;4.83;;;2.20;;
69502;SDS011;56704;54.242;12.442;2023-05-23T04:37:29;5.82;;;2.40;;
69502;SDS011;56704;54.242;12.442;2023-05-23T04:39:57;8.85;;;2.33;;
69502;SDS011;56704;54.242;12.442;2023-05-23T04:42:23;6.90;;;2.33;;
69502;SDS011;56704;54.242;12.442;2023-05-23T04:44:50;6.22;;;2.25;;
69502;SDS011;56704;54.242;12.442;2023-05-23T04:47:17;5.13;;;2.30;;
69502;SDS011;56704;54.242;12.442;2023-05-23T04:49:44;5.88;;;2.05;;
69502;SDS011;56704;54.242;12.442;2023-05-23T04:52:11;5.80;;;2.25;;
69502;SDS011;56704;54.242;12.442;2023-05-23T04:54:39;6.95;;;2.38;;
69502;SDS011;56704;54.242;12.442;2023-05-23T04:57:08;5.85;;;2.35;;
69502;SDS011;56704;54.242;12.442;2023-05-23T04:59:36;6.77;;;2.57;;
69502;SDS011;56704;54.242;12.442;2023-05-23T05:02:03;6.13;;;2.80;;
69502;SDS011;56704;54.242;12.442;2023-05-23T05:04:30;8.45;;;2.60;;
69502;SDS011;56704;54.242;12.442;2023-05-23T05:06:57;6.60;;;2.25;;
69502;SDS011;56704;54.242;12.442;2023-05-23T05:09:24;5.38;;;2.40;;
69502;SDS011;56704;54.242;12.442;2023-05-23T05:11:55;6.50;;;2.37;;
69502;SDS011;56704;54.242;12.442;2023-05-23T05:14:22;9.85;;;2.33;;
69502;SDS011;56704;54.242;12.442;2023-05-23T05:16:49;5.10;;;2.35;;
69502;SDS011;56704;54.242;12.442;2023-05-23T05:19:16;5.43;;;2.20;;
69502;SDS011;56704;54.242;12.442;2023-05-23T05:21:42;7.18;;;2.50;;
69502;SDS011;56704;54.242;12.442;2023-05-23T05:24:09;5.63;;;2.30;;
69502;SDS011;56704;54.242;12.442;2023-05-23T05:26:36;5.90;;;2.40;;
69502;SDS011;56704;54.242;12.442;2023-05-23T05:29:04;6.72;;;2.35;;
69502;SDS011;56704;54.242;12.442;2023-05-23T05:31:31;7.05;;;2.95;;
69502;SDS011;56704;54.242;12.442;2023-05-23T05:33:57;5.55;;;2.40;;
69502;SDS011;56704;54.242;12.442;2023-05-23T05:36:24;6.93;;;2.30;;
69502;SDS011;56704;54.242;12.442;2023-05-23T05:38:51;4.50;;;2.05;;
69502;SDS011;56704;54.242;12.442;2023-05-23T05:41:18;5.07;;;2.30;;
69502;SDS011;56704;54.242;12.442;2023-05-23T05:43:46;5.75;;;2.97;;
69502;SDS011;56704;54.242;12.442;2023-05-23T05:46:14;4.65;;;2.30;;
69502;SDS011;56704;54.242;12.442;2023-05-23T05:48:40;6.43;;;2.40;;
69502;SDS011;56704;54.242;12.442;2023-05-23T05:51:07;9.55;;;2.55;;
69502;SDS011;56704;54.242;12.442;2023-05-23T05:53:33;4.78;;;1.95;;
69502;SDS011;56704;54.242;12.442;2023-05-23T05:56:00;6.40;;;2.03;;
69502;SDS011;56704;54.242;12.442;2023-05-23T05:58:27;8.10;;;2.78;;
69502;SDS011;56704;54.242;12.442;2023-05-23T06:00:54;6.33;;;1.80;;
69502;SDS011;56704;54.242;12.442;2023-05-23T06:03:22;7.60;;;2.17;;
69502;SDS011;56704;54.242;12.442;2023-05-23T06:05:49;5.90;;;2.20;;
69502;SDS011;56704;54.242;12.442;2023-05-23T06:08:16;8.15;;;2.50;;
69502;SDS011;56704;54.242;12.442;2023-05-23T06:10:43;5.43;;;2.08;;
69502;SDS011;56704;54.242;12.442;2023-05-23T06:13:09;5.03;;;1.43;;
69502;SDS011;56704;54.242;12.442;2023-05-23T06:15:36;5.20;;;2.40;;
69502;SDS011;56704;54.242;12.442;2023-05-23T06:18:04;7.30;;;2.50;;
69502;SDS011;56704;54.242;12.442;2023-05-23T06:20:32;5.28;;;2.63;;
69502;SDS011;56704;54.242;12.442;2023-05-23T06:22:58;6.10;;;2.50;;
69502;SDS011;56704;54.242;12.442;2023-05-23T06:25:26;6.60;;;3.30;;
69502;SDS011;56704;54.242;12.442;2023-05-23T06:27:52;5.13;;;2.60;;
69502;SDS011;56704;54.242;12.442;2023-05-23T06:30:19;6.57;;;2.53;;
69502;SDS011;56704;54.242;12.442;2023-05-23T06:32:47;6.82;;;2.80;;
69502;SDS011;56704;54.242;12.442;2023-05-23T06:35:13;6.65;;;2.70;;
69502;SDS011;56704;54.242;12.442;2023-05-23T06:37:43;5.97;;;2.77;;
69502;SDS011;56704;54.242;12.442;2023-05-23T06:40:10;7.10;;;2.58;;
69502;SDS011;56704;54.242;12.442;2023-05-23T06:42:37;9.20;;;2.55;;
69502;SDS011;56704;54.242;12.442;2023-05-23T06:45:04;7.53;;;2.88;;
69502;SDS011;56704;54.242;12.442;2023-05-23T06:47:31;6.22;;;2.67;;
69502;SDS011;56704;54.242;12.442;2023-05-23T06:49:58;5.60;;;2.80;;
69502;SDS011;56704;54.242;12.442;2023-05-23T06:52:24;5.32;;;2.63;;
69502;SDS011;56704;54.242;12.442;2023-05-23T06:54:52;7.15;;;2.65;;
69502;SDS011;56704;54.242;12.442;2023-05-23T06:57:19;6.60;;;2.70;;
69502;SDS011;56704;54.242;12.442;2023-05-23T06:59:46;6.95;;;2.58;;
69502;SDS011;56704;54.242;12.442;2023-05-23T07:02:13;6.90;;;2.67;;
69502;SDS011;56704;54.242;12.442;2023-05-23T07:04:40;7.32;;;2.60;;
69502;SDS011;56704;54.242;12.442;2023-05-23T07:07:06;6.75;;;2.72;;
69502;SDS011;56704;54.242;12.442;2023-05-23T07:09:33;8.57;;;2.15;;
69502;SDS011;56704;54.242;12.442;2023-05-23T07:12:01;7.43;;;2.33;;
69502;SDS011;56704;54.242;12.442;2023-05-23T07:14:28;7.63;;;3.20;;
69502;SDS011;56704;54.242;12.442;2023-05-23T07:16:54;6.28;;;2.55;;
69502;SDS011;56704;54.242;12.442;2023-05-23T07:19:21;7.82;;;2.75;;
69502;SDS011;56704;54.242;12.442;2023-05-23T07:21:47;6.30;;;2.67;;
69502;SDS011;56704;54.242;12.442;2023-05-23T07:24:14;6.30;;;2.72;;
69502;SDS011;56704;54.242;12.442;2023-05-23T07:26:41;5.80;;;2.60;;
69502;SDS011;56704;54.242;12.442;2023-05-23T07:29:09;8.90;;;3.00;;
69502;SDS011;56704;54.242;12.442;2023-05-23T07:31:35;7.85;;;4.00;;
69502;SDS011;56704;54.242;12.442;2023-05-23T07:34:02;9.27;;;3.08;;
69502;SDS011;56704;54.242;12.442;2023-05-23T07:36:28;7.35;;;3.33;;
69502;SDS011;56704;54.242;12.442;2023-05-23T07:38:57;6.47;;;2.57;;
69502;SDS011;56704;54.242;12.442;2023-05-23T07:41:24;5.80;;;2.78;;
69502;SDS011;56704;54.242;12.442;2023-05-23T07:43:51;7.45;;;2.95;;
69502;SDS011;56704;54.242;12.442;2023-05-23T07:46:19;5.47;;;3.00;;
69502;SDS011;56704;54.242;12.442;2023-05-23T07:48:46;5.40;;;2.58;;
69502;SDS011;56704;54.242;12.442;2023-05-23T07:51:14;9.27;;;3.37;;
69502;SDS011;56704;54.242;12.442;2023-05-23T07:53:45;8.38;;;3.20;;
69502;SDS011;56704;54.242;12.442;2023-05-23T07:56:12;7.82;;;2.95;;
69502;SDS011;56704;54.242;12.442;2023-05-23T07:58:38;7.65;;;3.58;;
69502;SDS011;56704;54.242;12.442;2023-05-23T08:01:05;11.73;;;3.53;;
69502;SDS011;56704;54.242;12.442;2023-05-23T08:03:33;7.73;;;2.90;;
69502;SDS011;56704;54.242;12.442;2023-05-23T08:06:00;6.43;;;2.65;;
69502;SDS011;56704;54.242;12.442;2023-05-23T08:08:26;7.65;;;3.25;;
69502;SDS011;56704;54.242;12.442;2023-05-23T08:10:53;8.23;;;3.75;;
69502;SDS011;56704;54.242;12.442;2023-05-23T08:13:19;5.70;;;3.10;;
69502;SDS011;56704;54.242;12.442;2023-05-23T08:15:46;7.43;;;2.90;;
69502;SDS011;56704;54.242;12.442;2023-05-23T08:18:13;10.15;;;3.30;;
69502;SDS011;56704;54.242;12.442;2023-05-23T08:20:41;6.22;;;3.00;;
69502;SDS011;56704;54.242;12.442;2023-05-23T08:23:08;9.55;;;3.80;;
69502;SDS011;56704;54.242;12.442;2023-05-23T08:25:36;5.82;;;3.83;;
69502;SDS011;56704;54.242;12.442;2023-05-23T08:28:02;7.20;;;3.67;;
69502;SDS011;56704;54.242;12.442;2023-05-23T08:30:29;9.65;;;4.25;;
69502;SDS011;56704;54.242;12.442;2023-05-23T08:32:58;10.20;;;3.90;;
69502;SDS011;56704;54.242;12.442;2023-05-23T08:35:28;7.45;;;3.03;;
69502;SDS011;56704;54.242;12.442;2023-05-23T08:38:00;10.85;;;4.13;;
69502;SDS011;56704;54.242;12.442;2023-05-23T08:40:27;6.90;;;3.67;;
69502;SDS011;56704;54.242;12.442;2023-05-23T08:42:56;8.38;;;4.03;;
69502;SDS011;56704;54.242;12.442;2023-05-23T08:45:23;7.30;;;3.88;;
69502;SDS011;56704;54.242;12.442;2023-05-23T08:47:51;8.70;;;3.90;;
69502;SDS011;56704;54.242;12.442;2023-05-23T08:50:19;8.23;;;4.20;;
69502;SDS011;56704;54.242;12.442;2023-05-23T08:52:47;7.17;;;3.33;;
69502;SDS011;56704;54.242;12.442;2023-05-23T08:55:20;7.22;;;3.88;;
69502;SDS011;56704;54.242;12.442;2023-05-23T08:57:50;6.63;;;3.42;;
69502;SDS011;56704;54.242;12.442;2023-05-23T09:00:17;8.45;;;3.63;;
69502;SDS011;56704;54.242;12.442;2023-05-23T09:02:45;8.88;;;3.80;;
69502;SDS011;56704;54.242;12.442;2023-05-23T09:05:12;6.83;;;3.73;;
69502;SDS011;56704;54.242;12.442;2023-05-23T09:07:39;7.90;;;4.00;;
69502;SDS011;56704;54.242;12.442;2023-05-23T09:10:07;7.22;;;4.15;;
69502;SDS011;56704;54.242;12.442;2023-05-23T09:12:36;10.40;;;4.60;;
69502;SDS011;56704;54.242;12.442;2023-05-23T09:15:04;6.70;;;4.07;;
69502;SDS011;56704;54.242;12.442;2023-05-23T09:17:31;9.63;;;4.50;;
69502;SDS011;56704;54.242;12.442;2023-05-23T09:19:58;8.43;;;4.40;;
69502;SDS011;56704;54.242;12.442;2023-05-23T09:22:25;8.27;;;4.15;;
69502;SDS011;56704;54.242;12.442;2023-05-23T09:24:53;9.05;;;4.47;;
69502;SDS011;56704;54.242;12.442;2023-05-23T09:27:21;8.52;;;4.10;;
69502;SDS011;56704;54.242;12.442;2023-05-23T09:29:49;6.60;;;3.80;;
69502;SDS011;56704;54.242;12.442;2023-05-23T09:32:16;12.48;;;4.88;;
69502;SDS011;56704;54.242;12.442;2023-05-23T09:34:53;7.93;;;4.30;;
69502;SDS011;56704;54.242;12.442;2023-05-23T09:37:23;8.90;;;4.07;;
69502;SDS011;56704;54.242;12.442;2023-05-23T09:39:55;8.52;;;4.05;;
69502;SDS011;56704;54.242;12.442;2023-05-23T09:42:22;8.10;;;3.63;;
69502;SDS011;56704;54.242;12.442;2023-05-23T09:44:50;8.95;;;4.00;;
69502;SDS011;56704;54.242;12.442;2023-05-23T09:47:18;9.57;;;4.75;;
69502;SDS011;56704;54.242;12.442;2023-05-23T09:49:45;12.23;;;5.30;;
69502;SDS011;56704;54.242;12.442;2023-05-23T09:52:12;8.52;;;4.30;;
69502;SDS011;56704;54.242;12.442;2023-05-23T09:54:38;9.03;;;4.03;;
69502;SDS011;56704;54.242;12.442;2023-05-23T09:57:06;8.05;;;4.30;;
69502;SDS011;56704;54.242;12.442;2023-05-23T09:59:36;9.93;;;4.40;;
69502;SDS011;56704;54.242;12.442;2023-05-23T10:02:06;8.25;;;4.45;;
69502;SDS011;56704;54.242;12.442;2023-05-23T10:04:38;11.17;;;5.73;;
69502;SDS011;56704;54.242;12.442;2023-05-23T10:07:09;7.20;;;3.88;;
69502;SDS011;56704;54.242;12.442;2023-05-23T10:09:40;9.73;;;4.70;;
69502;SDS011;56704;54.242;12.442;2023-05-23T10:15:10;8.88;;;3.90;;
69502;SDS011;56704;54.242;12.442;2023-05-23T10:17:45;9.60;;;4.50;;
69502;SDS011;56704;54.242;12.442;2023-05-23T10:20:29;7.65;;;3.80;;
69502;SDS011;56704;54.242;12.442;2023-05-23T10:22:58;8.27;;;4.05;;
69502;SDS011;56704;54.242;12.442;2023-05-23T10:25:25;8.43;;;3.55;;
69502;SDS011;56704;54.242;12.442;2023-05-23T10:27:53;8.25;;;4.57;;
69502;SDS011;56704;54.242;12.442;2023-05-23T10:30:23;8.90;;;4.30;;
69502;SDS011;56704;54.242;12.442;2023-05-23T10:32:51;10.43;;;4.55;;
69502;SDS011;56704;54.242;12.442;2023-05-23T10:35:20;9.20;;;4.47;;
69502;SDS011;56704;54.242;12.442;2023-05-23T10:37:54;9.10;;;4.50;;
69502;SDS011;56704;54.242;12.442;2023-05-23T10:40:26;9.45;;;4.22;;
69502;SDS011;56704;54.242;12.442;2023-05-23T10:43:00;8.77;;;4.87;;
69502;SDS011;56704;54.242;12.442;2023-05-23T10:45:38;11.00;;;5.18;;
69502;SDS011;56704;54.242;12.442;2023-05-23T10:48:18;10.38;;;4.85;;
69502;SDS011;56704;54.242;12.442;2023-05-23T10:51:00;11.60;;;5.15;;
69502;SDS011;56704;54.242;12.442;2023-05-23T10:53:29;10.48;;;4.80;;
69502;SDS011;56704;54.242;12.442;2023-05-23T10:55:56;9.73;;;5.13;;
69502;SDS011;56704;54.242;12.442;2023-05-23T10:58:23;9.50;;;5.45;;
69502;SDS011;56704;54.242;12.442;2023-05-23T11:00:53;9.35;;;5.18;;
69502;SDS011;56704;54.242;12.442;2023-05-23T11:03:32;11.18;;;5.95;;
69502;SDS011;56704;54.242;12.442;2023-05-23T11:06:00;10.27;;;5.70;;
69502;SDS011;56704;54.242;12.442;2023-05-23T11:08:35;10.63;;;4.80;;
69502;SDS011;56704;54.242;12.442;2023-05-23T11:11:03;9.20;;;5.30;;
69502;SDS011;56704;54.242;12.442;2023-05-23T11:16:25;10.82;;;5.20;;
69502;SDS011;56704;54.242;12.442;2023-05-23T11:18:58;9.70;;;5.10;;
69502;SDS011;56704;54.242;12.442;2023-05-23T11:21:51;9.60;;;4.77;;
69502;SDS011;56704;54.242;12.442;2023-05-23T11:24:19;8.93;;;4.65;;
69502;SDS011;56704;54.242;12.442;2023-05-23T11:26:52;8.70;;;4.50;;
69502;SDS011;56704;54.242;12.442;2023-05-23T11:29:24;8.57;;;4.90;;
69502;SDS011;56704;54.242;12.442;2023-05-23T11:31:52;8.02;;;4.80;;
69502;SDS011;56704;54.242;12.442;2023-05-23T11:34:21;9.70;;;4.40;;
69502;SDS011;56704;54.242;12.442;2023-05-23T11:36:51;8.73;;;4.40;;
69502;SDS011;56704;54.242;12.442;2023-05-23T11:39:19;8.15;;;4.10;;
69502;SDS011;56704;54.242;12.442;2023-05-23T11:41:49;7.40;;;3.55;;
69502;SDS011;56704;54.242;12.442;2023-05-23T11:44:23;7.10;;;3.60;;
69502;SDS011;56704;54.242;12.442;2023-05-23T11:46:57;7.97;;;4.10;;
69502;SDS011;56704;54.242;12.442;2023-05-23T11:49:27;6.78;;;3.53;;
69502;SDS011;56704;54.242;12.442;2023-05-23T11:51:55;7.40;;;3.20;;
69502;SDS011;56704;54.242;12.442;2023-05-23T11:54:23;7.95;;;3.13;;
69502;SDS011;56704;54.242;12.442;2023-05-23T11:56:51;7.38;;;3.17;;
69502;SDS011;56704;54.242;12.442;2023-05-23T11:59:17;8.43;;;3.53;;
69502;SDS011;56704;54.242;12.442;2023-05-23T12:01:44;6.00;;;3.08;;
69502;SDS011;56704;54.242;12.442;2023-05-23T12:04:11;8.07;;;2.95;;
69502;SDS011;56704;54.242;12.442;2023-05-23T12:06:39;5.13;;;2.80;;
69502;SDS011;56704;54.242;12.442;2023-05-23T12:09:06;9.60;;;3.35;;
69502;SDS011;56704;54.242;12.442;2023-05-23T12:11:35;8.43;;;3.40;;
69502;SDS011;56704;54.242;12.442;2023-05-23T12:14:02;6.15;;;2.88;;
69502;SDS011;56704;54.242;12.442;2023-05-23T12:16:30;8.35;;;3.83;;
69502;SDS011;56704;54.242;12.442;2023-05-23T12:18:57;7.43;;;3.15;;
69502;SDS011;56704;54.242;12.442;2023-05-23T12:21:25;9.77;;;3.65;;
69502;SDS011;56704;54.242;12.442;2023-05-23T12:24:11;6.27;;;2.87;;
69502;SDS011;56704;54.242;12.442;2023-05-23T12:26:49;7.05;;;3.13;;
69502;SDS011;56704;54.242;12.442;2023-05-23T12:29:18;7.15;;;4.00;;
69502;SDS011;56704;54.242;12.442;2023-05-23T12:31:49;6.88;;;3.63;;
69502;SDS011;56704;54.242;12.442;2023-05-23T12:34:18;8.45;;;4.40;;
69502;SDS011;56704;54.242;12.442;2023-05-23T12:36:47;6.53;;;4.07;;
69502;SDS011;56704;54.242;12.442;2023-05-23T12:39:15;9.38;;;4.00;;
69502;SDS011;56704;54.242;12.442;2023-05-23T12:41:50;9.98;;;4.45;;
69502;SDS011;56704;54.242;12.442;2023-05-23T12:44:17;8.20;;;3.50;;
69502;SDS011;56704;54.242;12.442;2023-05-23T12:46:43;9.50;;;3.65;;
69502;SDS011;56704;54.242;12.442;2023-05-23T12:49:11;7.97;;;3.47;;
69502;SDS011;56704;54.242;12.442;2023-05-23T12:51:38;7.43;;;3.53;;
69502;SDS011;56704;54.242;12.442;2023-05-23T12:54:05;6.20;;;2.25;;
69502;SDS011;56704;54.242;12.442;2023-05-23T12:56:35;5.13;;;2.22;;
69502;SDS011;56704;54.242;12.442;2023-05-23T12:59:01;6.93;;;2.35;;
69502;SDS011;56704;54.242;12.442;2023-05-23T13:01:28;5.70;;;1.70;;
69502;SDS011;56704;54.242;12.442;2023-05-23T13:03:55;5.82;;;1.60;;
69502;SDS011;56704;54.242;12.442;2023-05-23T13:06:22;3.40;;;1.42;;
69502;SDS011;56704;54.242;12.442;2023-05-23T13:08:48;3.38;;;1.38;;
69502;SDS011;56704;54.242;12.442;2023-05-23T13:11:15;4.55;;;1.48;;
69502;SDS011;56704;54.242;12.442;2023-05-23T13:13:44;4.47;;;1.40;;
69502;SDS011;56704;54.242;12.442;2023-05-23T13:16:11;4.72;;;1.13;;
69502;SDS011;56704;54.242;12.442;2023-05-23T13:18:38;4.68;;;1.30;;
69502;SDS011;56704;54.242;12.442;2023-05-23T13:21:05;5.30;;;1.38;;
69502;SDS011;56704;54.242;12.442;2023-05-23T13:23:31;4.85;;;1.08;;
69502;SDS011;56704;54.242;12.442;2023-05-23T13:25:59;2.90;;;0.97;;
69502;SDS011;56704;54.242;12.442;2023-05-23T13:28:30;4.32;;;1.20;;
69502;SDS011;56704;54.242;12.442;2023-05-23T13:30:58;3.10;;;0.98;;
69502;SDS011;56704;54.242;12.442;2023-05-23T13:33:25;3.55;;;1.10;;
69502;SDS011;56704;54.242;12.442;2023-05-23T13:35:52;4.03;;;1.40;;
69502;SDS011;56704;54.242;12.442;2023-05-23T13:38:19;3.00;;;0.87;;
69502;SDS011;56704;54.242;12.442;2023-05-23T13:40:46;5.00;;;1.10;;
69502;SDS011;56704;54.242;12.442;2023-05-23T13:43:13;3.40;;;1.10;;
69502;SDS011;56704;54.242;12.442;2023-05-23T13:45:39;6.63;;;1.30;;
69502;SDS011;56704;54.242;12.442;2023-05-23T13:48:07;2.95;;;0.88;;
69502;SDS011;56704;54.242;12.442;2023-05-23T13:50:34;3.23;;;1.10;;
69502;SDS011;56704;54.242;12.442;2023-05-23T13:53:01;4.20;;;1.05;;
69502;SDS011;56704;54.242;12.442;2023-05-23T13:55:28;4.72;;;1.20;;
69502;SDS011;56704;54.242;12.442;2023-05-23T13:57:55;3.30;;;0.90;;
69502;SDS011;56704;54.242;12.442;2023-05-23T14:00:22;3.72;;;1.08;;
69502;SDS011;56704;54.242;12.442;2023-05-23T14:02:48;2.20;;;0.60;;
69502;SDS011;56704;54.242;12.442;2023-05-23T14:05:16;3.38;;;0.98;;
69502;SDS011;56704;54.242;12.442;2023-05-23T14:07:43;2.72;;;0.70;;
69502;SDS011;56704;54.242;12.442;2023-05-23T14:10:11;4.97;;;1.27;;
69502;SDS011;56704;54.242;12.442;2023-05-23T14:12:38;2.65;;;0.60;;
69502;SDS011;56704;54.242;12.442;2023-05-23T14:15:05;4.10;;;0.50;;
69502;SDS011;56704;54.242;12.442;2023-05-23T14:17:32;5.65;;;0.60;;
69502;SDS011;56704;54.242;12.442;2023-05-23T14:19:59;3.20;;;0.80;;
69502;SDS011;56704;54.242;12.442;2023-05-23T14:22:27;3.97;;;0.63;;
69502;SDS011;56704;54.242;12.442;2023-05-23T14:24:53;2.85;;;0.85;;
69502;SDS011;56704;54.242;12.442;2023-05-23T14:27:20;5.33;;;1.27;;
69502;SDS011;56704;54.242;12.442;2023-05-23T14:29:47;6.90;;;1.45;;
69502;SDS011;56704;54.242;12.442;2023-05-23T14:32:13;5.68;;;1.85;;
69502;SDS011;56704;54.242;12.442;2023-05-23T14:34:40;8.13;;;2.50;;
69502;SDS011;56704;54.242;12.442;2023-05-23T14:37:07;5.53;;;1.73;;
69502;SDS011;56704;54.242;12.442;2023-05-23T14:39:35;5.00;;;1.57;;
69502;SDS011;56704;54.242;12.442;2023-05-23T14:42:02;5.57;;;1.73;;
69502;SDS011;56704;54.242;12.442;2023-05-23T14:44:28;13.32;;;2.17;;